Terminal Aerodrome Forecast
Issued by NWS Rapid City, SD

Home | Current Version | Previous Version | Graphics & Text | Print | Product List | Glossary On
Versions: 1 2 3 4 5 6 7 8 9 10 11 12 13 14 15 16 17 18 19
000
FTUS43 KUNR 250500
TAFRAP
TAF
KRAP 250520Z 2506/2606 35011KT P6SM BKN060 OVC100
     FM251000 35015KT P6SM OVC015
     FM251400 35020KT 3/4SM -SN BR VV007=

USA.gov is the U.S. government's official web portal to all federal, state and local government web resources and services.